Time;durP1;ratioP1;P1;durP2;ratioP2;P2;SDS_P1;SDS_P2;PMS_P1;PMS_P2;Temp;Humidity;BMP_temperature;BMP_pressure;BME280_temperature;BME280_humidity;BME280_pressure;Samples;Min_cycle;Max_cycle;Signal;HPM_P1;HPM_P2
2023/05/15 00:00:53;;;;;;;8.50;8.30;;;12.10;99.90;;;;;;6173430;23;20198;-87
2023/05/15 00:03:24;;;;;;;8.63;8.43;;;12.10;99.90;;;;;;6173604;23;20258;-86
2023/05/15 00:05:52;;;;;;;8.60;8.40;;;12.10;99.90;;;;;;6173267;23;20231;-86
2023/05/15 00:08:23;;;;;;;8.53;8.33;;;12.00;99.90;;;;;;6172871;23;20212;-87
2023/05/15 00:11:02;;;;;;;8.40;8.20;;;12.00;99.90;;;;;;6173540;23;20196;-87
2023/05/15 00:13:38;;;;;;;8.80;8.60;;;12.00;99.90;;;;;;6180888;23;20200;-86
2023/05/15 00:16:20;;;;;;;8.50;8.30;;;12.00;99.90;;;;;;6186116;23;20346;-86
2023/05/15 00:19:00;;;;;;;8.57;8.37;;;12.00;99.90;;;;;;6174329;23;20192;-87
2023/05/15 00:24:22;;;;;;;8.30;8.10;;;11.90;99.90;;;;;;6172959;23;20192;-86
2023/05/15 00:27:00;;;;;;;8.30;8.10;;;11.90;99.90;;;;;;6172884;23;20260;-87
2023/05/15 00:29:41;;;;;;;8.50;8.30;;;11.80;99.90;;;;;;6173039;23;20200;-87
2023/05/15 00:32:19;;;;;;;8.20;8.00;;;11.80;99.90;;;;;;6172977;23;20204;-87
2023/05/15 00:37:35;;;;;;;8.63;8.43;;;11.80;99.90;;;;;;6170460;23;20212;-86
2023/05/15 00:40:07;;;;;;;8.67;8.47;;;11.80;99.90;;;;;;6173162;23;20200;-87
2023/05/15 00:42:51;;;;;;;8.90;8.60;;;11.80;99.90;;;;;;6172599;23;20207;-87
2023/05/15 00:45:28;;;;;;;8.67;8.47;;;11.70;99.90;;;;;;6172848;23;20198;-86
2023/05/15 00:48:01;;;;;;;9.00;8.70;;;11.70;99.90;;;;;;6172772;23;20210;-86
2023/05/15 00:53:22;;;;;;;8.60;8.40;;;11.70;99.90;;;;;;6172988;23;20192;-86
2023/05/15 00:56:09;;;;;;;8.70;8.50;;;11.70;99.90;;;;;;6172174;23;20215;-87
2023/05/15 00:58:49;;;;;;;8.70;8.50;;;11.70;99.90;;;;;;6173124;23;20282;-86
2023/05/15 01:04:04;;;;;;;8.40;8.20;;;11.60;99.90;;;;;;6173110;23;20192;-86
2023/05/15 01:09:29;;;;;;;8.30;8.10;;;11.60;99.90;;;;;;6172920;23;20206;-87
2023/05/15 01:14:55;;;;;;;8.70;8.50;;;11.50;99.90;;;;;;6170709;23;20196;-87
2023/05/15 01:17:25;;;;;;;8.70;8.50;;;11.40;99.90;;;;;;6173495;23;20218;-87
2023/05/15 01:20:02;;;;;;;8.67;8.47;;;11.40;99.90;;;;;;6175194;23;20203;-87
2023/05/15 01:23:06;;;;;;;8.60;8.40;;;11.40;99.90;;;;;;6177147;23;20200;-87
2023/05/15 01:26:32;;;;;;;8.70;8.50;;;11.30;99.90;;;;;;6174460;23;20227;-87
2023/05/15 01:29:09;;;;;;;8.50;8.30;;;11.30;99.90;;;;;;6164806;23;20200;-87
2023/05/15 01:31:46;;;;;;;8.40;8.20;;;11.20;99.90;;;;;;6173501;23;20202;-87
2023/05/15 01:34:24;;;;;;;8.40;8.20;;;11.20;99.90;;;;;;6173235;23;20203;-87
2023/05/15 01:37:04;;;;;;;8.40;8.20;;;11.20;99.90;;;;;;6173168;23;20212;-86
2023/05/15 01:39:35;;;;;;;8.40;8.20;;;11.20;99.90;;;;;;6173752;23;20227;-87
2023/05/15 01:42:20;;;;;;;8.20;8.00;;;11.20;99.90;;;;;;6173957;23;20199;-87
2023/05/15 01:44:57;;;;;;;8.27;8.07;;;11.20;99.90;;;;;;6173298;23;20255;-87
2023/05/15 01:47:37;;;;;;;8.40;8.20;;;11.20;99.90;;;;;;6172559;23;20200;-88
2023/05/15 01:53:00;;;;;;;8.43;8.23;;;11.10;99.90;;;;;;6171007;23;20203;-88
2023/05/15 01:55:32;;;;;;;8.40;8.20;;;11.00;99.90;;;;;;6171883;23;20212;-87
2023/05/15 02:00:56;;;;;;;8.40;8.20;;;11.00;99.90;;;;;;6171807;23;20207;-88
2023/05/15 02:03:28;;;;;;;8.40;8.20;;;11.00;99.90;;;;;;6172466;23;20251;-87
2023/05/15 02:08:45;;;;;;;8.33;8.13;;;11.00;99.90;;;;;;6171859;23;20269;-87
2023/05/15 02:11:16;;;;;;;8.20;8.00;;;11.00;99.90;;;;;;6172755;23;20192;-87
2023/05/15 02:13:51;;;;;;;8.53;8.33;;;11.00;99.90;;;;;;6180317;23;20188;-87
2023/05/15 02:16:27;;;;;;;8.60;8.40;;;10.90;99.90;;;;;;6189835;23;20191;-88
2023/05/15 02:18:57;;;;;;;8.50;8.30;;;10.90;99.90;;;;;;6174498;23;20231;-88
2023/05/15 02:21:27;;;;;;;8.47;8.27;;;10.80;99.90;;;;;;6172869;23;20204;-88
2023/05/15 02:23:57;;;;;;;8.40;8.20;;;10.80;99.90;;;;;;6186128;23;20207;-88
2023/05/15 02:26:43;;;;;;;8.30;8.10;;;10.80;99.90;;;;;;6182053;23;20201;-87
2023/05/15 02:29:21;;;;;;;8.40;8.20;;;10.70;99.90;;;;;;6172297;23;20196;-87
2023/05/15 02:32:13;;;;;;;8.40;8.20;;;10.70;99.90;;;;;;6172504;23;20199;-87
2023/05/15 02:34:58;;;;;;;8.50;8.30;;;10.70;99.90;;;;;;6172105;23;20256;-87
2023/05/15 02:37:34;;;;;;;8.20;8.00;;;10.70;99.90;;;;;;6172635;23;20227;-88
2023/05/15 02:40:05;;;;;;;8.13;7.93;;;10.60;99.90;;;;;;6179333;23;20196;-87
2023/05/15 02:42:42;;;;;;;8.40;8.20;;;10.60;99.90;;;;;;6178085;23;20196;-87
2023/05/15 02:45:13;;;;;;;8.50;8.30;;;10.60;99.90;;;;;;6173061;23;20216;-87
2023/05/15 02:47:51;;;;;;;8.40;8.20;;;10.50;99.90;;;;;;6173913;23;20192;-87
2023/05/15 02:50:20;;;;;;;8.27;8.07;;;10.50;99.90;;;;;;6173664;23;20195;-87
2023/05/15 02:52:48;;;;;;;8.10;7.90;;;10.50;99.90;;;;;;6173543;23;20200;-86
2023/05/15 02:55:18;;;;;;;8.10;7.90;;;10.50;99.90;;;;;;6175887;23;20228;-87
2023/05/15 02:57:47;;;;;;;8.27;8.07;;;10.40;99.90;;;;;;6189052;23;20231;-88
2023/05/15 03:00:19;;;;;;;8.30;8.10;;;10.40;99.90;;;;;;6189918;23;20169;-87
2023/05/15 03:02:55;;;;;;;8.30;8.10;;;10.40;99.90;;;;;;6175773;23;20200;-87
2023/05/15 03:05:24;;;;;;;8.20;8.00;;;10.40;99.90;;;;;;6174949;23;20195;-86
2023/05/15 03:07:54;;;;;;;8.07;7.87;;;10.40;99.90;;;;;;6187385;23;20239;-88
2023/05/15 03:10:23;;;;;;;8.30;8.10;;;10.40;99.90;;;;;;6188871;23;20212;-87
2023/05/15 03:12:53;;;;;;;8.10;7.90;;;10.30;99.90;;;;;;6181848;23;20201;-86
2023/05/15 03:15:23;;;;;;;9.00;8.70;;;10.30;99.90;;;;;;6176785;23;20204;-87
2023/05/15 03:17:54;;;;;;;8.73;8.50;;;10.20;99.90;;;;;;6174425;23;20220;-87
2023/05/15 03:20:23;;;;;;;8.90;8.60;;;10.20;99.90;;;;;;6173899;23;20215;-87
2023/05/15 03:22:51;;;;;;;8.60;8.40;;;10.10;99.90;;;;;;6175068;23;20195;-87
2023/05/15 03:25:20;;;;;;;8.70;8.50;;;10.10;99.90;;;;;;6177532;23;20196;-87
2023/05/15 03:27:53;;;;;;;8.90;8.60;;;10.00;99.90;;;;;;6177035;23;20235;-87
2023/05/15 03:30:21;;;;;;;8.90;8.60;;;10.00;99.90;;;;;;6177425;23;20192;-86
2023/05/15 03:32:49;;;;;;;9.07;8.77;;;10.00;99.90;;;;;;6181425;23;20199;-87
2023/05/15 03:35:20;;;;;;;9.20;8.90;;;9.90;99.90;;;;;;6176311;23;20211;-87
2023/05/15 03:37:56;;;;;;;9.10;8.80;;;9.90;99.90;;;;;;6174823;23;20196;-87
2023/05/15 03:40:25;;;;;;;9.07;8.77;;;9.90;99.90;;;;;;6175976;23;20195;-87
2023/05/15 03:42:56;;;;;;;8.70;8.47;;;9.80;99.90;;;;;;6175836;23;20203;-87
2023/05/15 03:45:24;;;;;;;8.87;8.57;;;9.80;99.90;;;;;;6174051;23;20269;-87
2023/05/15 03:47:53;;;;;;;8.60;8.40;;;9.80;99.90;;;;;;6174081;23;20200;-88
2023/05/15 03:53:10;;;;;;;8.60;8.40;;;9.70;99.90;;;;;;6175951;23;20196;-88
2023/05/15 03:55:41;;;;;;;8.90;8.60;;;9.70;99.90;;;;;;6176721;23;20211;-88
2023/05/15 03:58:09;;;;;;;8.60;8.40;;;9.60;99.90;;;;;;6179586;23;20181;-88
2023/05/15 04:00:39;;;;;;;8.90;8.60;;;9.60;99.90;;;;;;6184503;23;20212;-88
2023/05/15 04:03:07;;;;;;;8.70;8.50;;;9.60;99.90;;;;;;6177020;23;20224;-88
2023/05/15 04:05:49;;;;;;;8.70;8.50;;;9.60;99.90;;;;;;6185982;23;20224;-88
2023/05/15 04:08:17;;;;;;;8.67;8.47;;;9.60;99.90;;;;;;6189459;23;20203;-89
2023/05/15 04:10:46;;;;;;;8.40;8.20;;;9.60;99.90;;;;;;6189380;23;20256;-89
2023/05/15 04:13:16;;;;;;;8.60;8.40;;;9.60;99.90;;;;;;6189206;23;20227;-88
2023/05/15 04:15:47;;;;;;;8.60;8.40;;;9.60;99.90;;;;;;6189268;23;20196;-88
2023/05/15 04:18:15;;;;;;;8.63;8.43;;;9.60;99.90;;;;;;6189779;23;20220;-88
2023/05/15 04:20:53;;;;;;;8.53;8.33;;;9.60;99.90;;;;;;6189656;23;20236;-89
2023/05/15 04:23:23;;;;;;;8.47;8.27;;;9.50;99.90;;;;;;6190029;23;20180;-88
2023/05/15 04:25:52;;;;;;;8.87;8.57;;;9.50;99.90;;;;;;6190201;23;20212;-88
2023/05/15 04:28:23;;;;;;;9.10;8.80;;;9.60;99.90;;;;;;6190062;23;20210;-88
2023/05/15 04:30:51;;;;;;;9.00;8.70;;;9.60;99.90;;;;;;6191516;23;20184;-88
2023/05/15 04:33:23;;;;;;;8.63;8.43;;;9.60;99.90;;;;;;6191721;23;20204;-88
2023/05/15 04:36:02;;;;;;;8.70;8.50;;;9.50;99.90;;;;;;6191482;23;20204;-88
2023/05/15 04:38:30;;;;;;;8.73;8.50;;;9.50;99.90;;;;;;6191288;23;20281;-88
2023/05/15 04:40:58;;;;;;;9.17;8.87;;;9.50;99.90;;;;;;6191595;23;20188;-88
2023/05/15 04:43:28;;;;;;;9.00;8.70;;;9.50;99.90;;;;;;6191309;23;20196;-88
2023/05/15 04:46:04;;;;;;;8.90;8.60;;;9.50;99.90;;;;;;6190976;23;20204;-88
2023/05/15 04:48:35;;;;;;;8.70;8.50;;;9.60;99.90;;;;;;6189899;23;20219;-88
2023/05/15 04:51:16;;;;;;;8.90;8.60;;;9.60;99.90;;;;;;6190119;23;20180;-88
2023/05/15 04:53:44;;;;;;;9.00;8.70;;;9.70;99.90;;;;;;6189535;23;20252;-88
2023/05/15 04:56:12;;;;;;;8.50;8.30;;;9.70;99.90;;;;;;6189181;23;20223;-88
2023/05/15 04:58:41;;;;;;;8.47;8.27;;;9.80;99.90;;;;;;6180483;23;20204;-88
2023/05/15 05:01:10;;;;;;;8.80;8.60;;;9.90;99.90;;;;;;6175543;23;20257;-88
2023/05/15 05:03:51;;;;;;;8.70;8.50;;;9.90;99.90;;;;;;6177278;23;20256;-88
2023/05/15 05:15:14;;;;;;;8.60;8.40;;;10.20;99.90;;;;;;6132456;23;20256;-85
2023/05/15 05:30:02;;;;;;;8.50;8.30;;;10.70;99.90;;;;;;5910032;24;20206;-85
2023/05/15 05:42:39;;;;;;;9.10;8.80;;;11.40;99.90;;;;;;6139979;23;20203;-82
2023/05/15 05:45:10;;;;;;;10.00;9.70;;;11.50;99.90;;;;;;6139826;23;20377;-82
2023/05/15 05:50:27;;;;;;;9.80;9.50;;;11.90;99.90;;;;;;6141604;23;20221;-82
2023/05/15 05:53:03;;;;;;;10.03;9.73;;;12.10;99.90;;;;;;6142271;23;20201;-82
2023/05/15 05:55:44;;;;;;;10.10;9.80;;;12.30;99.90;;;;;;6142691;23;20197;-82
2023/05/15 05:58:13;;;;;;;10.20;9.90;;;12.40;99.90;;;;;;6141366;23;20228;-82
2023/05/15 06:03:50;;;;;;;10.10;9.80;;;12.70;99.90;;;;;;6141712;23;20258;-82
2023/05/15 06:06:54;;;;;;;10.13;9.83;;;12.90;99.90;;;;;;6140661;23;20204;-82
2023/05/15 06:13:09;;;;;;;10.30;10.00;;;13.10;99.90;;;;;;6138435;23;20270;-82
2023/05/15 06:15:47;;;;;;;10.10;9.80;;;13.10;99.90;;;;;;6139067;23;20204;-82
2023/05/15 06:21:56;;;;;;;10.57;10.27;;;13.10;99.90;;;;;;6156127;23;20211;-82
2023/05/15 06:29:43;;;;;;;10.47;10.17;;;13.30;99.90;;;;;;5968043;23;20190;-83
2023/05/15 07:12:39;;;;;;;10.30;10.00;;;14.70;99.90;;;;;;6067962;23;20248;-81
2023/05/15 07:18:56;;;;;;;10.25;9.95;;;14.90;99.90;;;;;;6138002;23;20228;-81
2023/05/15 07:21:43;;;;;;;10.10;9.80;;;15.10;99.90;;;;;;6047625;23;20302;-82
2023/05/15 07:31:43;;;;;;;10.45;10.15;;;15.50;99.90;;;;;;6135403;23;20196;-82
2023/05/15 07:34:34;;;;;;;10.50;10.20;;;15.70;99.90;;;;;;6137984;23;20254;-82
2023/05/15 07:38:06;;;;;;;10.90;10.60;;;15.80;99.90;;;;;;6137245;23;20265;-81
2023/05/15 07:43:23;;;;;;;10.68;10.38;;;16.00;99.90;;;;;;6134546;23;20254;-81
2023/05/15 07:46:05;;;;;;;10.80;10.50;;;16.10;99.90;;;;;;6149863;23;20201;-83
2023/05/15 07:58:41;;;;;;;9.98;9.68;;;16.50;99.90;;;;;;6135071;23;20233;-80
2023/05/15 08:05:19;;;;;;;9.82;9.52;;;17.10;99.90;;;;;;5914912;24;20205;-81
2023/05/15 08:11:24;;;;;;;10.20;9.90;;;17.20;99.90;;;;;;6135475;23;20201;-81
2023/05/15 08:20:51;;;;;;;10.07;9.77;;;16.30;99.90;;;;;;6139022;23;20201;-81
2023/05/15 08:26:54;;;;;;;10.07;9.77;;;16.60;99.90;;;;;;6141573;23;20291;-81
2023/05/15 08:30:28;;;;;;;10.30;10.00;;;16.80;99.90;;;;;;6140592;23;20193;-81
2023/05/15 08:33:08;;;;;;;10.30;10.00;;;16.80;99.90;;;;;;6122364;23;20204;-80
2023/05/15 08:38:54;;;;;;;10.25;9.95;;;17.40;99.90;;;;;;6138889;23;20279;-82
2023/05/15 08:41:58;;;;;;;10.02;9.73;;;17.70;99.90;;;;;;6142232;23;20197;-83
2023/05/15 08:45:28;;;;;;;;;;;;;;;;;;;;;
2023/05/15 08:51:47;;;;;;;10.30;10.00;;;17.70;99.90;;;;;;6159869;23;20199;-82
2023/05/15 08:58:28;;;;;;;;;;;;;;;;;;;;;
2023/05/15 09:00:58;;;;;;;9.55;9.25;;;18.30;99.90;;;;;;6047732;23;20244;-82
2023/05/15 09:03:45;;;;;;;9.80;9.50;;;18.10;99.90;;;;;;6135631;23;20197;-84
2023/05/15 09:18:06;;;;;;;10.50;10.20;;;17.90;99.90;;;;;;6116814;23;20293;-83
2023/05/15 09:24:35;;;;;;;10.85;10.55;;;18.00;99.90;;;;;;6113917;23;20193;-84
2023/05/15 09:27:22;;;;;;;10.55;10.25;;;18.70;99.90;;;;;;6142373;23;20284;-83
2023/05/15 09:30:18;;;;;;;10.60;10.30;;;19.20;99.90;;;;;;6143403;23;20193;-83
2023/05/15 09:36:55;;;;;;;10.63;10.32;;;20.00;99.90;;;;;;6137704;23;20216;-84
2023/05/15 09:49:31;;;;;;;10.55;10.25;;;19.00;99.90;;;;;;6141750;23;20201;-83
2023/05/15 09:55:36;;;;;;;10.40;10.10;;;18.40;99.90;;;;;;6112223;23;20215;-83
2023/05/15 09:58:26;;;;;;;10.30;10.00;;;18.40;99.90;;;;;;6140590;23;20197;-84
2023/05/15 10:01:09;;;;;;;10.20;9.90;;;18.50;99.90;;;;;;6141071;23;20192;-84
2023/05/15 10:04:34;;;;;;;;;;;;;;;;;;;;;
2023/05/15 10:16:11;;;;;;;10.60;10.30;;;17.90;99.90;;;;;;6142426;23;20205;-84
2023/05/15 10:18:57;;;;;;;10.23;9.93;;;17.10;99.90;;;;;;6142013;23;20201;-84
2023/05/15 10:24:28;;;;;;;10.27;9.98;;;16.90;99.90;;;;;;6139821;23;20197;-82
2023/05/15 10:27:26;;;;;;;9.80;9.50;;;17.00;99.90;;;;;;6140838;23;20200;-83
2023/05/15 11:08:44;;;;;;;10.15;9.85;;;16.00;99.90;;;;;;6199385;23;20207;-83
2023/05/15 11:11:56;;;;;;;10.07;9.77;;;16.30;99.90;;;;;;6203342;23;20258;-83
2023/05/15 11:14:27;;;;;;;10.30;10.00;;;16.60;99.90;;;;;;6202668;23;20187;-83
2023/05/15 11:17:05;;;;;;;10.07;9.77;;;17.00;99.90;;;;;;6203958;23;20211;-83
2023/05/15 11:19:43;;;;;;;9.48;9.18;;;17.30;99.90;;;;;;6203539;23;20229;-82
2023/05/15 11:22:22;;;;;;;10.48;10.18;;;17.70;99.90;;;;;;6204312;23;20195;-83
2023/05/15 11:24:56;;;;;;;10.63;10.32;;;18.40;99.90;;;;;;6209831;22;20187;-83
2023/05/15 11:27:32;;;;;;;10.30;10.00;;;19.10;99.90;;;;;;6202025;23;20204;-83
2023/05/15 11:30:16;;;;;;;10.23;9.93;;;19.70;99.90;;;;;;6204006;23;20202;-82
2023/05/15 11:35:48;;;;;;;10.73;10.43;;;20.80;99.90;;;;;;6203284;23;20287;-82
2023/05/15 11:38:27;;;;;;;10.75;10.45;;;21.50;99.90;;;;;;6204019;23;20206;-81
2023/05/15 11:41:02;;;;;;;10.75;10.45;;;21.80;99.90;;;;;;6204222;23;20202;-81
2023/05/15 11:43:35;;;;;;;10.70;10.40;;;22.20;99.90;;;;;;6204905;23;20207;-81
2023/05/15 11:46:13;;;;;;;10.70;10.40;;;22.60;99.90;;;;;;6210146;23;20191;-82
2023/05/15 11:48:42;;;;;;;10.60;10.30;;;23.00;99.90;;;;;;6203698;23;20195;-81
2023/05/15 11:51:21;;;;;;;10.40;10.10;;;23.40;99.90;;;;;;6202354;23;20206;-82
2023/05/15 11:53:51;;;;;;;10.27;9.98;;;23.60;99.90;;;;;;6202604;23;20215;-82
2023/05/15 11:56:24;;;;;;;10.48;10.18;;;23.70;99.90;;;;;;6203263;23;20262;-82
2023/05/15 11:58:58;;;;;;;10.07;9.77;;;23.70;99.90;;;;;;6207227;23;20211;-81
2023/05/15 12:01:28;;;;;;;10.07;9.77;;;24.00;99.90;;;;;;6217068;23;20196;-82
2023/05/15 12:03:55;;;;;;;10.02;9.73;;;24.40;99.90;;;;;;6219766;22;20235;-82
2023/05/15 12:06:24;;;;;;;10.15;9.85;;;24.80;99.90;;;;;;6218855;22;20192;-81
2023/05/15 12:08:53;;;;;;;10.25;9.95;;;24.90;99.90;;;;;;6206542;23;20195;-80
2023/05/15 12:11:26;;;;;;;10.50;10.20;;;25.20;99.90;;;;;;6202218;23;20199;-82
2023/05/15 12:13:55;;;;;;;10.70;10.40;;;25.30;99.90;;;;;;6210000;23;20196;-82
2023/05/15 12:16:26;;;;;;;11.20;10.90;;;25.50;99.90;;;;;;6220206;22;20222;-82
2023/05/15 12:18:55;;;;;;;11.00;10.70;;;25.50;99.90;;;;;;6220590;22;20317;-82
2023/05/15 12:21:26;;;;;;;11.00;10.70;;;25.40;99.90;;;;;;6216517;23;20183;-82
2023/05/15 12:24:00;;;;;;;10.75;10.45;;;25.40;99.90;;;;;;6219950;22;20222;-81
2023/05/15 12:26:32;;;;;;;10.15;9.85;;;24.70;99.90;;;;;;6218611;22;20196;-82
2023/05/15 12:29:00;;;;;;;9.85;9.55;;;23.50;99.90;;;;;;6212172;23;20206;-81
2023/05/15 12:31:30;;;;;;;9.90;9.60;;;21.80;99.90;;;;;;6204473;23;20235;-82
2023/05/15 12:33:57;;;;;;;9.90;9.60;;;21.00;99.90;;;;;;6204689;23;20207;-82
2023/05/15 12:36:30;;;;;;;9.98;9.68;;;20.60;99.90;;;;;;6205052;23;20199;-83
2023/05/15 12:38:59;;;;;;;9.90;9.60;;;20.40;99.90;;;;;;6205519;23;20210;-83
2023/05/15 12:41:32;;;;;;;10.10;9.80;;;20.40;99.90;;;;;;6209035;23;20192;-82
2023/05/15 12:43:59;;;;;;;10.35;10.05;;;20.10;99.90;;;;;;6205577;23;20208;-83
2023/05/15 12:46:32;;;;;;;10.15;9.85;;;20.20;99.90;;;;;;6204575;23;20196;-82
2023/05/15 12:49:00;;;;;;;10.57;10.27;;;20.30;99.90;;;;;;6203176;23;20220;-83
2023/05/15 12:51:28;;;;;;;10.38;10.07;;;20.50;99.90;;;;;;6202741;23;20202;-82
2023/05/15 12:53:57;;;;;;;9.80;9.50;;;20.60;99.90;;;;;;6202769;23;20204;-82
2023/05/15 12:56:25;;;;;;;10.00;9.70;;;21.00;99.90;;;;;;6205754;23;20203;-82
2023/05/15 12:58:56;;;;;;;10.07;9.77;;;21.50;99.90;;;;;;6202070;23;20247;-83
2023/05/15 13:01:25;;;;;;;10.23;9.93;;;21.70;99.90;;;;;;6203006;23;20191;-82
2023/05/15 13:03:54;;;;;;;10.38;10.07;;;21.60;99.90;;;;;;6203985;23;20200;-83
2023/05/15 13:06:23;;;;;;;10.68;10.38;;;21.80;99.90;;;;;;6202485;23;20199;-83
2023/05/15 13:08:52;;;;;;;10.63;10.32;;;22.40;99.90;;;;;;6202268;23;20202;-82
2023/05/15 13:11:22;;;;;;;10.57;10.27;;;22.80;99.90;;;;;;6201580;23;20192;-83
2023/05/15 13:13:53;;;;;;;10.50;10.20;;;23.30;99.90;;;;;;6210885;23;20196;-82
2023/05/15 13:16:31;;;;;;;10.77;10.48;;;23.90;99.90;;;;;;6217388;23;20239;-84
2023/05/15 13:18:59;;;;;;;10.48;10.18;;;24.40;99.90;;;;;;6207861;23;20850;-81
2023/05/15 13:21:30;;;;;;;10.40;10.10;;;24.30;99.90;;;;;;6205933;23;20223;-83
2023/05/15 13:23:58;;;;;;;10.40;10.10;;;23.60;99.90;;;;;;6204827;23;20192;-82
2023/05/15 13:26:27;;;;;;;10.18;9.88;;;23.10;99.90;;;;;;6203511;23;20210;-82
2023/05/15 13:28:58;;;;;;;10.10;9.80;;;22.40;99.90;;;;;;6202267;23;20191;-82
2023/05/15 13:31:27;;;;;;;10.10;9.80;;;21.90;99.90;;;;;;6203123;23;20206;-82
2023/05/15 13:33:56;;;;;;;10.35;10.05;;;21.60;99.90;;;;;;6202330;23;20285;-81
2023/05/15 13:36:26;;;;;;;10.30;10.00;;;21.90;99.90;;;;;;6202333;23;20199;-82
2023/05/15 13:38:54;;;;;;;10.30;10.00;;;22.60;99.90;;;;;;6204489;23;20203;-82
2023/05/15 13:41:25;;;;;;;10.10;9.80;;;23.40;99.90;;;;;;6202736;23;20204;-82
2023/05/15 13:43:53;;;;;;;10.30;10.00;;;23.90;99.90;;;;;;6204361;23;20226;-80
2023/05/15 13:46:22;;;;;;;10.73;10.43;;;24.30;99.90;;;;;;6207656;22;20199;-81
2023/05/15 13:48:54;;;;;;;10.88;10.57;;;24.70;99.90;;;;;;6202559;23;20200;-82
2023/05/15 13:51:22;;;;;;;10.77;10.48;;;25.10;99.90;;;;;;6202678;23;20202;-82
2023/05/15 13:53:50;;;;;;;10.70;10.40;;;25.50;99.90;;;;;;6202572;23;20204;-82
2023/05/15 13:56:22;;;;;;;10.70;10.40;;;25.80;99.90;;;;;;6203299;23;20192;-82
2023/05/15 13:58:50;;;;;;;10.70;10.40;;;25.70;99.90;;;;;;6202577;23;20255;-81
2023/05/15 14:01:19;;;;;;;10.25;9.95;;;25.50;99.90;;;;;;6203351;23;20192;-81
2023/05/15 14:03:47;;;;;;;10.30;10.00;;;25.20;99.90;;;;;;6204926;23;20246;-81
2023/05/15 14:06:31;;;;;;;10.52;10.23;;;24.80;99.90;;;;;;6205339;23;20230;-82
2023/05/15 14:08:58;;;;;;;10.30;10.00;;;24.70;99.90;;;;;;6209694;22;20194;-82
2023/05/15 14:11:28;;;;;;;10.40;10.10;;;24.70;99.90;;;;;;6201998;23;20204;-82
2023/05/15 14:13:56;;;;;;;10.60;10.30;;;24.90;99.90;;;;;;6200838;23;20214;-81
2023/05/15 14:16:25;;;;;;;10.70;10.40;;;25.10;99.90;;;;;;6201928;23;20254;-81
2023/05/15 14:18:52;;;;;;;10.43;10.13;;;25.40;99.90;;;;;;6201487;23;20204;-81
2023/05/15 14:21:20;;;;;;;10.65;10.35;;;25.60;99.90;;;;;;6200612;23;20663;-81
2023/05/15 14:23:50;;;;;;;10.40;10.10;;;25.60;99.90;;;;;;6203274;23;20250;-81
2023/05/15 14:26:17;;;;;;;10.40;10.10;;;25.40;99.90;;;;;;6212050;22;20196;-80
2023/05/15 14:28:48;;;;;;;10.48;10.18;;;25.00;99.90;;;;;;6201621;23;20210;-81
2023/05/15 14:31:19;;;;;;;10.20;9.90;;;24.90;99.90;;;;;;6200739;23;20247;-80
2023/05/15 14:33:47;;;;;;;9.90;9.60;;;25.00;99.90;;;;;;6200705;23;20195;-81
2023/05/15 14:36:15;;;;;;;9.70;9.40;;;25.00;99.90;;;;;;6200579;23;20202;-80
2023/05/15 14:38:46;;;;;;;10.10;9.80;;;24.10;99.90;;;;;;6202659;23;20196;-80
2023/05/15 14:41:18;;;;;;;9.93;9.63;;;23.30;99.90;;;;;;6207192;23;20192;-81
2023/05/15 14:43:46;;;;;;;9.80;9.50;;;23.00;99.90;;;;;;6200086;23;20215;-80
2023/05/15 14:46:15;;;;;;;9.90;9.60;;;23.00;99.90;;;;;;6200193;23;20206;-80
2023/05/15 14:48:42;;;;;;;9.40;9.10;;;23.00;99.90;;;;;;6200244;23;20218;-80
2023/05/15 14:51:10;;;;;;;9.70;9.40;;;22.90;99.90;;;;;;6200157;23;20211;-81
2023/05/15 14:53:38;;;;;;;9.95;9.65;;;23.10;99.90;;;;;;6200174;23;20196;-80
2023/05/15 14:56:07;;;;;;;9.70;9.40;;;23.20;99.90;;;;;;6201039;23;20195;-81
2023/05/15 14:58:38;;;;;;;9.70;9.40;;;23.70;99.90;;;;;;6205229;23;20207;-80
2023/05/15 15:01:06;;;;;;;9.07;8.88;;;24.10;99.90;;;;;;6203460;23;21085;-81
2023/05/15 15:03:33;;;;;;;9.55;9.25;;;24.20;99.90;;;;;;6203543;23;20680;-80
2023/05/15 15:06:01;;;;;;;9.70;9.40;;;23.90;99.90;;;;;;6209659;22;20218;-79
2023/05/15 15:08:28;;;;;;;9.57;9.27;;;23.60;99.90;;;;;;6213292;22;20187;-80
2023/05/15 15:10:57;;;;;;;9.30;9.00;;;23.40;99.90;;;;;;6219692;22;20195;-79
2023/05/15 15:13:26;;;;;;;9.40;9.10;;;23.20;99.90;;;;;;6218935;22;20214;-79
2023/05/15 15:15:55;;;;;;;9.40;9.10;;;23.30;99.90;;;;;;6206468;23;20195;-80
2023/05/15 15:18:23;;;;;;;9.10;8.80;;;23.30;99.90;;;;;;6200669;23;20211;-80
2023/05/15 15:20:56;;;;;;;9.50;9.20;;;23.30;99.90;;;;;;6201309;23;20274;-82
2023/05/15 15:23:24;;;;;;;9.65;9.35;;;23.20;99.90;;;;;;6200104;23;20212;-81
2023/05/15 15:25:52;;;;;;;9.85;9.55;;;23.20;99.90;;;;;;6200792;23;20292;-81
2023/05/15 15:28:24;;;;;;;9.77;9.48;;;23.30;99.90;;;;;;6201401;23;20207;-83
2023/05/15 15:30:55;;;;;;;9.63;9.32;;;23.30;99.90;;;;;;6201964;23;20192;-83
2023/05/15 15:33:22;;;;;;;9.50;9.20;;;23.10;99.90;;;;;;6202032;23;20199;-78
2023/05/15 15:35:53;;;;;;;9.65;9.35;;;22.80;99.90;;;;;;6201029;23;20278;-81
2023/05/15 15:38:21;;;;;;;10.10;9.80;;;22.60;99.90;;;;;;6200109;23;20218;-80
2023/05/15 15:40:49;;;;;;;9.77;9.48;;;22.50;99.90;;;;;;6199017;23;20258;-80
2023/05/15 15:43:20;;;;;;;9.60;9.30;;;22.60;99.90;;;;;;6197636;23;20203;-81
2023/05/15 15:45:48;;;;;;;9.35;9.05;;;22.90;99.90;;;;;;6203761;23;20207;-80
2023/05/15 15:48:19;;;;;;;9.35;9.05;;;23.30;99.90;;;;;;6197897;23;20203;-80
2023/05/15 15:50:48;;;;;;;9.73;9.43;;;23.40;99.90;;;;;;6201142;23;20215;-81
2023/05/15 15:53:18;;;;;;;9.73;9.43;;;23.20;99.90;;;;;;6200393;23;20733;-81
2023/05/15 15:55:47;;;;;;;10.10;9.80;;;22.90;99.90;;;;;;6200426;23;20278;-81
2023/05/15 15:58:15;;;;;;;10.27;9.98;;;22.70;99.90;;;;;;6202878;23;20287;-82
2023/05/15 16:00:46;;;;;;;10.18;9.88;;;22.40;99.90;;;;;;6210186;23;20202;-82
2023/05/15 16:03:15;;;;;;;10.30;10.00;;;22.00;99.90;;;;;;6205536;23;20247;-82
2023/05/15 16:05:51;;;;;;;10.50;10.20;;;21.70;99.90;;;;;;6205447;23;20198;-84
2023/05/15 16:08:19;;;;;;;10.10;9.80;;;21.40;99.90;;;;;;6203993;23;20207;-84
2023/05/15 16:10:46;;;;;;;10.30;10.00;;;21.10;99.90;;;;;;6203908;23;20227;-83
2023/05/15 16:13:16;;;;;;;10.35;10.05;;;20.70;99.90;;;;;;6202369;23;20195;-84
2023/05/15 16:15:44;;;;;;;10.30;10.00;;;20.60;99.90;;;;;;6201277;23;20231;-85
2023/05/15 16:18:13;;;;;;;9.77;9.48;;;20.50;99.90;;;;;;6201843;23;20211;-85
2023/05/15 16:20:43;;;;;;;10.00;9.70;;;20.40;99.90;;;;;;6204056;23;20196;-84
2023/05/15 16:23:15;;;;;;;10.00;9.70;;;20.30;99.90;;;;;;6204394;23;20195;-84
2023/05/15 16:25:44;;;;;;;9.88;9.57;;;20.20;99.90;;;;;;6201756;23;20198;-85
2023/05/15 16:28:12;;;;;;;9.85;9.55;;;20.20;99.90;;;;;;6204030;23;20209;-84
2023/05/15 16:30:41;;;;;;;10.02;9.73;;;20.00;99.90;;;;;;6204761;23;20199;-84
2023/05/15 16:33:10;;;;;;;10.10;9.80;;;19.90;99.90;;;;;;6203635;23;20212;-84
2023/05/15 16:35:38;;;;;;;9.80;9.50;;;19.80;99.90;;;;;;6203594;23;20255;-84
2023/05/15 16:38:12;;;;;;;9.65;9.35;;;19.60;99.90;;;;;;6203377;23;20238;-84
2023/05/15 16:40:41;;;;;;;9.68;9.38;;;19.40;99.90;;;;;;6203473;23;20191;-84
2023/05/15 16:43:09;;;;;;;9.70;9.40;;;19.10;99.90;;;;;;6202471;23;20196;-84
2023/05/15 16:45:38;;;;;;;9.82;9.52;;;18.90;99.90;;;;;;6202968;23;20211;-84
2023/05/15 16:48:07;;;;;;;9.90;9.60;;;18.80;99.90;;;;;;6203660;23;20220;-85
2023/05/15 16:50:36;;;;;;;10.10;9.80;;;18.70;99.90;;;;;;6202279;23;20247;-84
2023/05/15 16:53:06;;;;;;;9.80;9.50;;;18.70;99.90;;;;;;6202891;23;20191;-84
2023/05/15 16:55:35;;;;;;;9.75;9.45;;;18.80;99.90;;;;;;6209710;23;20223;-84
2023/05/15 16:58:16;;;;;;;9.90;9.60;;;18.90;99.90;;;;;;6201284;23;20207;-84
2023/05/15 17:00:44;;;;;;;9.52;9.23;;;18.90;99.90;;;;;;6200030;23;20227;-83
2023/05/15 17:03:13;;;;;;;9.63;9.32;;;18.90;99.90;;;;;;6201544;23;20226;-83
2023/05/15 17:05:42;;;;;;;9.50;9.20;;;19.00;99.90;;;;;;6200788;23;20208;-83
2023/05/15 17:08:11;;;;;;;9.68;9.38;;;18.90;99.90;;;;;;6199672;23;20211;-83
2023/05/15 17:10:41;;;;;;;9.27;8.98;;;18.80;99.90;;;;;;6200501;23;20210;-82
2023/05/15 17:13:21;;;;;;;10.02;9.73;;;18.80;99.90;;;;;;6200552;23;20199;-82
2023/05/15 17:15:50;;;;;;;9.77;9.48;;;18.80;99.90;;;;;;6201311;23;20206;-84
2023/05/15 17:18:18;;;;;;;9.50;9.20;;;18.90;99.90;;;;;;6202432;23;20259;-85
2023/05/15 17:20:47;;;;;;;9.70;9.40;;;18.90;99.90;;;;;;6201082;23;20223;-84
2023/05/15 17:23:18;;;;;;;9.50;9.20;;;18.80;99.90;;;;;;6201369;23;20199;-82
2023/05/15 17:25:47;;;;;;;9.40;9.10;;;18.50;99.90;;;;;;6201060;23;20192;-83
2023/05/15 17:28:18;;;;;;;9.50;9.20;;;18.10;99.90;;;;;;6200580;23;20499;-82
2023/05/15 17:30:46;;;;;;;9.50;9.20;;;17.90;99.90;;;;;;6201585;23;20207;-82
2023/05/15 17:33:15;;;;;;;9.70;9.40;;;17.60;99.90;;;;;;6209432;23;20200;-82
2023/05/15 17:35:44;;;;;;;9.50;9.20;;;17.30;99.90;;;;;;6219739;23;20200;-81